Time;durP1;ratioP1;P1;durP2;ratioP2;P2;SDS_P1;SDS_P2;PMS_P1;PMS_P2;Temp;Humidity;BMP_temperature;BMP_pressure;BME280_temperature;BME280_humidity;BME280_pressure;Samples;Min_cycle;Max_cycle;Signal;HPM_P1;HPM_P2
2022/04/17 00:02:32;;;;;;;7.37;2.23;;;;;;;10.88;37.37;99328.75;8384116;28;20227;-75
2022/04/17 00:06:35;;;;;;;3.47;2.00;;;;;;;10.90;37.54;99324.41;8384650;28;20203;-75
2022/04/17 00:10:38;;;;;;;3.63;2.30;;;;;;;10.83;37.31;99312.47;8384483;28;20205;-75
2022/04/17 00:14:43;;;;;;;4.13;2.50;;;;;;;10.64;38.43;99312.03;8384105;28;20211;-75
2022/04/17 00:18:46;;;;;;;3.80;2.00;;;;;;;10.62;38.53;99306.06;8384043;28;20200;-75
2022/04/17 00:22:49;;;;;;;2.97;2.27;;;;;;;10.74;38.14;99304.03;8384070;28;20216;-75
2022/04/17 00:26:52;;;;;;;3.90;2.27;;;;;;;10.69;38.05;99302.44;8384320;28;20195;-75
2022/04/17 00:30:57;;;;;;;2.83;2.30;;;;;;;10.67;38.63;99299.88;8384073;28;20210;-75
2022/04/17 00:35:00;;;;;;;3.50;2.40;;;;;;;10.62;38.56;99295.69;8383893;28;20230;-75
2022/04/17 00:39:03;;;;;;;4.17;2.30;;;;;;;10.57;38.88;99288.88;8383562;28;20252;-75
2022/04/17 00:43:19;;;;;;;2.90;2.40;;;;;;;10.45;38.93;99283.13;8383516;28;20247;-75
2022/04/17 00:47:23;;;;;;;4.60;2.37;;;;;;;10.40;38.98;99293.59;8383450;28;20196;-75
2022/04/17 00:51:26;;;;;;;4.72;2.88;;;;;;;10.83;38.26;99284.81;8381378;28;20421;-75
2022/04/17 00:55:29;;;;;;;4.40;3.10;;;;;;;10.31;39.22;99294.63;8383173;28;20200;-75
2022/04/17 00:59:33;;;;;;;5.50;2.93;;;;;;;10.27;39.80;99285.22;8383030;28;20203;-76
2022/04/17 01:03:38;;;;;;;4.87;3.07;;;;;;;10.07;39.90;99280.47;8382996;28;20224;-76
2022/04/17 01:07:41;;;;;;;4.37;3.00;;;;;;;10.05;40.17;99277.06;8383386;28;20191;-75
2022/04/17 01:11:44;;;;;;;4.13;2.30;;;;;;;9.91;39.98;99274.75;8382935;28;20203;-75
2022/04/17 01:15:47;;;;;;;7.40;2.93;;;;;;;9.87;40.01;99270.53;8382574;28;20210;-75
2022/04/17 01:19:51;;;;;;;2.33;2.13;;;;;;;9.84;39.73;99261.97;8382451;28;20200;-76
2022/04/17 01:28:17;;;;;;;3.90;2.40;;;;;;;9.65;40.55;99258.91;8382754;28;20210;-75
2022/04/17 01:32:20;;;;;;;5.73;2.40;;;;;;;9.57;40.44;99251.31;8382145;28;20215;-75
2022/04/17 01:36:23;;;;;;;4.13;2.87;;;;;;;9.51;40.65;99249.69;8381961;28;20219;-75
2022/04/17 01:40:27;;;;;;;3.83;2.73;;;;;;;9.43;40.63;99249.00;8382504;28;20244;-75
2022/04/17 01:44:30;;;;;;;5.47;2.60;;;;;;;9.24;41.14;99239.88;8382248;28;20652;-75
2022/04/17 01:48:33;;;;;;;4.30;2.63;;;;;;;9.22;41.21;99234.75;8382260;28;20486;-75
2022/04/17 01:52:36;;;;;;;3.30;2.60;;;;;;;9.33;40.85;99231.97;8381771;28;20210;-75
2022/04/17 01:56:42;;;;;;;4.53;2.70;;;;;;;9.31;41.54;99232.00;8381813;28;20721;-75
2022/04/17 02:00:44;;;;;;;4.00;2.70;;;;;;;9.24;41.28;99216.63;8381735;28;20219;-76
2022/04/17 02:04:48;;;;;;;5.37;3.73;;;;;;;9.27;41.55;99212.25;8388758;28;20235;-75
2022/04/17 02:08:51;;;;;;;6.97;3.53;;;;;;;9.22;41.43;99205.47;8388209;28;20203;-75
2022/04/17 02:12:56;;;;;;;4.87;3.07;;;;;;;9.14;41.33;99197.88;8388170;28;20199;-75
2022/04/17 02:17:00;;;;;;;5.00;4.20;;;;;;;9.02;41.93;99206.66;8388592;28;20200;-75
2022/04/17 02:21:04;;;;;;;6.18;3.83;;;;;;;9.24;41.04;99201.97;8387069;28;20480;-75
2022/04/17 02:25:07;;;;;;;4.63;3.20;;;;;;;8.98;41.60;99200.69;8387473;28;20239;-74
2022/04/17 02:29:11;;;;;;;5.00;3.77;;;;;;;8.91;41.93;99200.84;8387662;28;20207;-75
2022/04/17 02:33:14;;;;;;;5.90;2.77;;;;;;;8.75;41.75;99210.59;8387945;28;20204;-74
2022/04/17 02:37:17;;;;;;;3.67;2.90;;;;;;;8.72;42.03;99211.53;8387227;28;20215;-75
2022/04/17 02:41:20;;;;;;;4.50;3.70;;;;;;;8.54;42.43;99207.50;8387838;28;20227;-75
2022/04/17 02:45:24;;;;;;;7.27;5.00;;;;;;;8.54;42.76;99202.31;8387046;28;20287;-75
2022/04/17 02:49:27;;;;;;;5.80;4.83;;;;;;;8.76;42.38;99208.00;8386932;28;20207;-74
2022/04/17 02:53:32;;;;;;;4.90;2.80;;;;;;;8.68;42.46;99209.88;8386900;28;20214;-74
2022/04/17 02:57:35;;;;;;;3.90;2.80;;;;;;;8.58;42.30;99213.47;8387517;28;20191;-75
2022/04/17 03:06:03;;;;;;;6.10;3.07;;;;;;;8.39;42.60;99200.81;8386493;28;20191;-75
2022/04/17 03:10:07;;;;;;;5.93;2.80;;;;;;;8.51;42.60;99191.19;8386720;28;20419;-75
2022/04/17 03:14:09;;;;;;;4.00;2.50;;;;;;;8.35;42.54;99183.66;8385864;28;20204;-75
2022/04/17 03:18:14;;;;;;;3.40;2.47;;;;;;;8.49;42.54;99182.63;8386510;28;20391;-75
2022/04/17 03:22:17;;;;;;;3.83;2.50;;;;;;;8.31;43.00;99188.91;8386281;28;20516;-74
2022/04/17 03:26:20;;;;;;;4.67;2.60;;;;;;;8.39;42.91;99185.31;8386249;28;20225;-75
2022/04/17 03:30:23;;;;;;;3.07;2.60;;;;;;;8.28;43.05;99188.94;8385881;28;20209;-75
2022/04/17 03:34:27;;;;;;;3.63;2.67;;;;;;;8.18;43.13;99177.91;8386041;28;20204;-75
2022/04/17 03:38:30;;;;;;;4.43;2.47;;;;;;;7.99;43.70;99172.19;8385818;28;20200;-75
2022/04/17 03:42:35;;;;;;;3.73;2.57;;;;;;;8.08;43.39;99166.88;8385955;28;20254;-75
2022/04/17 03:46:38;;;;;;;3.63;2.50;;;;;;;8.05;43.45;99174.66;8385239;28;20218;-75
2022/04/17 03:50:43;;;;;;;2.80;2.20;;;;;;;8.03;43.57;99177.28;8385272;28;20299;-75
2022/04/17 03:54:46;;;;;;;3.80;2.70;;;;;;;8.02;43.67;99174.72;8384932;28;20494;-75
2022/04/17 03:58:48;;;;;;;3.50;2.70;;;;;;;7.97;43.44;99176.50;8384776;28;20200;-75
2022/04/17 04:02:52;;;;;;;3.23;2.60;;;;;;;7.99;43.72;99167.03;8385049;28;20414;-75
2022/04/17 04:06:56;;;;;;;3.63;2.93;;;;;;;8.05;43.62;99173.81;8385034;28;20414;-75
2022/04/17 04:10:59;;;;;;;4.57;2.67;;;;;;;7.87;43.79;99170.63;8384541;28;20200;-75
2022/04/17 04:15:03;;;;;;;3.57;2.90;;;;;;;7.90;43.87;99172.31;8384246;28;20210;-74
2022/04/17 04:19:06;;;;;;;3.70;2.60;;;;;;;7.78;44.56;99169.03;8384682;28;20199;-75
2022/04/17 04:23:11;;;;;;;3.47;2.47;;;;;;;7.79;44.67;99173.31;8382839;28;20230;-75
2022/04/17 04:31:34;;;;;;;3.43;2.63;;;;;;;7.74;44.94;99175.09;8381784;28;20192;-75
2022/04/17 04:35:37;;;;;;;3.83;2.70;;;;;;;7.74;44.87;99179.41;8382832;28;20231;-75
2022/04/17 04:39:42;;;;;;;4.93;2.63;;;;;;;7.63;44.80;99179.56;8382974;28;20227;-75
2022/04/17 04:43:45;;;;;;;3.47;2.50;;;;;;;7.72;44.32;99171.69;8380297;28;20228;-75
2022/04/17 04:47:47;;;;;;;3.77;2.50;;;;;;;7.72;44.39;99171.69;8382818;28;20196;-74
2022/04/17 04:51:51;;;;;;;5.17;2.63;;;;;;;7.67;44.70;99176.06;8382505;28;20192;-74
2022/04/17 04:55:55;;;;;;;6.13;2.90;;;;;;;7.75;44.29;99170.78;8382888;28;20203;-74
2022/04/17 04:59:58;;;;;;;3.47;2.80;;;;;;;7.81;43.87;99168.16;8382893;28;20210;-86
2022/04/17 05:04:01;;;;;;;5.93;2.67;;;;;;;7.85;43.89;99164.66;8384649;28;20228;-84
2022/04/17 05:08:05;;;;;;;4.37;2.97;;;;;;;7.96;44.01;99157.63;8388057;28;20211;-88
2022/04/17 05:12:10;;;;;;;3.70;2.57;;;;;;;7.99;43.70;99154.97;8382493;28;20202;-74
2022/04/17 05:16:14;;;;;;;3.77;2.50;;;;;;;8.23;43.21;99146.00;8382418;28;20209;-75
2022/04/17 05:20:17;;;;;;;4.40;3.10;;;;;;;8.30;43.67;99158.81;8382577;28;20221;-75
2022/04/17 05:24:20;;;;;;;5.80;5.13;;;;;;;8.33;43.80;99151.88;8382325;28;20235;-74
2022/04/17 05:28:24;;;;;;;5.10;4.50;;;;;;;8.41;43.74;99152.66;8382134;28;20199;-74
2022/04/17 05:32:28;;;;;;;4.30;3.70;;;;;;;8.59;43.82;99151.47;8382211;28;20199;-74
2022/04/17 05:36:31;;;;;;;4.13;3.37;;;;;;;8.49;43.40;99155.09;8381891;28;20204;-74
2022/04/17 05:40:36;;;;;;;3.70;3.00;;;;;;;8.70;44.01;99161.63;8382276;28;20232;-75
2022/04/17 05:44:41;;;;;;;4.60;3.10;;;;;;;8.85;43.47;99157.88;8382054;28;20518;-75
2022/04/17 05:48:44;;;;;;;7.20;3.00;;;;;;;9.17;43.27;99165.03;8382692;28;20199;-75
2022/04/17 05:52:47;;;;;;;4.10;2.37;;;;;;;9.45;42.16;99163.66;8381738;28;20200;-74
2022/04/17 05:56:50;;;;;;;4.03;2.90;;;;;;;9.63;41.60;99172.75;8381869;28;20210;-76
2022/04/17 06:00:55;;;;;;;3.80;2.37;;;;;;;10.05;41.24;99168.38;8381425;28;20200;-76
2022/04/17 06:04:58;;;;;;;4.30;2.63;;;;;;;10.23;40.53;99172.25;8381476;28;20237;-81
2022/04/17 06:09:02;;;;;;;4.53;2.50;;;;;;;10.66;39.34;99175.56;8381722;28;20282;-77
2022/04/17 06:13:05;;;;;;;3.33;2.33;;;;;;;11.15;39.48;99166.47;8381444;28;20203;-74
2022/04/17 06:17:10;;;;;;;3.90;2.47;;;;;;;11.16;38.95;99165.59;8381587;28;20218;-72
2022/04/17 06:21:13;;;;;;;5.90;2.90;;;;;;;11.12;38.31;99164.84;8380757;28;20199;-74
2022/04/17 06:25:16;;;;;;;5.30;2.67;;;;;;;11.22;38.59;99152.47;8380652;28;20542;-74
2022/04/17 06:29:19;;;;;;;3.87;2.33;;;;;;;11.40;38.96;99155.41;8380609;28;20192;-75
2022/04/17 06:33:24;;;;;;;4.03;2.43;;;;;;;11.49;37.78;99160.34;8380659;28;20390;-79
2022/04/17 06:37:30;;;;;;;4.37;2.50;;;;;;;11.61;37.90;99165.16;8381028;28;20191;-74
2022/04/17 06:41:33;;;;;;;4.80;2.40;;;;;;;11.96;37.92;99160.72;8378661;28;20434;-75
2022/04/17 06:45:38;;;;;;;4.13;2.20;;;;;;;12.03;36.44;99156.16;8380597;28;20220;-75
2022/04/17 06:49:42;;;;;;;4.30;2.30;;;;;;;12.49;36.49;99157.31;8385479;28;20453;-75
2022/04/17 06:53:46;;;;;;;5.53;2.83;;;;;;;11.62;36.95;99156.50;8386532;28;20199;-73
2022/04/17 06:57:50;;;;;;;4.87;2.50;;;;;;;12.90;35.48;99155.88;8386966;28;20195;-74
2022/04/17 07:01:53;;;;;;;5.37;2.50;;;;;;;13.37;34.72;99156.88;8385488;28;20208;-75
2022/04/17 07:05:57;;;;;;;2.80;2.30;;;;;;;13.76;34.23;99170.13;8386408;28;20242;-75
2022/04/17 07:10:01;;;;;;;4.33;2.40;;;;;;;13.92;34.23;99166.94;8386442;28;20242;-75
2022/04/17 07:14:04;;;;;;;3.83;2.60;;;;;;;14.39;32.95;99157.25;8385958;28;20207;-88
2022/04/17 07:18:07;;;;;;;5.63;2.30;;;;;;;14.53;32.63;99161.03;8386153;28;20517;-88
2022/04/17 07:22:13;;;;;;;4.60;2.40;;;;;;;14.68;32.37;99146.53;8386627;28;20482;-88
2022/04/17 07:26:16;;;;;;;6.43;3.27;;;;;;;14.89;31.31;99144.75;8386118;28;20524;-89
2022/04/17 07:30:21;;;;;;;4.10;2.43;;;;;;;15.21;31.42;99133.78;8383295;28;20196;-88
2022/04/17 07:34:25;;;;;;;4.37;2.27;;;;;;;14.71;31.49;99117.72;8384445;28;20207;-89
2022/04/17 07:38:30;;;;;;;3.30;2.27;;;;;;;14.77;31.32;99123.50;8386527;28;20200;-88
2022/04/17 07:42:33;;;;;;;4.60;2.70;;;;;;;15.45;30.39;99125.75;8386169;28;20238;-86
2022/04/17 07:46:37;;;;;;;4.30;2.40;;;;;;;15.62;30.27;99117.97;8382818;28;20406;-88
2022/04/17 07:50:40;;;;;;;4.53;2.90;;;;;;;16.17;29.55;99114.53;8385002;28;20211;-88
2022/04/17 07:54:44;;;;;;;5.07;3.00;;;;;;;16.42;29.13;99106.31;8385898;28;20196;-88
2022/04/17 07:58:48;;;;;;;6.60;2.77;;;;;;;15.71;29.10;99105.44;8385005;28;20192;-87
2022/04/17 08:02:55;;;;;;;7.30;2.83;;;;;;;15.89;28.65;99107.16;8384610;28;20196;-87
2022/04/17 08:06:59;;;;;;;3.77;2.53;;;;;;;16.16;29.27;99096.31;8382270;28;20218;-88
2022/04/17 08:11:04;;;;;;;5.20;2.40;;;;;;;15.58;28.58;99105.16;8384778;28;20223;-88
2022/04/17 08:15:08;;;;;;;7.20;3.20;;;;;;;17.19;27.86;99098.91;8384357;28;20206;-87
2022/04/17 08:19:12;;;;;;;4.50;2.50;;;;;;;17.05;27.14;99097.03;8384322;28;20200;-87
2022/04/17 08:23:15;;;;;;;3.33;2.30;;;;;;;16.93;27.40;99093.28;8383838;28;20219;-87
2022/04/17 08:27:19;;;;;;;4.67;2.27;;;;;;;17.24;26.93;99093.44;8382003;28;20518;-88
2022/04/17 08:31:22;;;;;;;4.63;2.20;;;;;;;17.76;25.65;99098.41;8384079;28;20338;-87
2022/04/17 08:35:25;;;;;;;5.03;2.40;;;;;;;17.63;24.97;99090.44;8384006;28;20210;-77
2022/04/17 08:39:28;;;;;;;4.20;1.80;;;;;;;18.03;25.77;99082.09;8383845;28;20564;-77
2022/04/17 08:43:34;;;;;;;5.10;2.20;;;;;;;17.91;25.49;99084.50;8383706;28;20199;-76
2022/04/17 08:47:38;;;;;;;3.73;2.17;;;;;;;17.17;26.50;99074.59;8384237;28;20255;-92
2022/04/17 08:51:47;;;;;;;3.33;2.20;;;;;;;17.47;25.92;99074.69;8384217;28;20210;-84
2022/04/17 08:55:51;;;;;;;4.67;2.60;;;;;;;18.56;25.19;99073.75;8383643;28;20208;-85
2022/04/17 08:59:58;;;;;;;3.53;2.30;;;;;;;17.92;25.07;99073.09;8383107;28;20385;-84
2022/04/17 09:04:01;;;;;;;4.00;2.27;;;;;;;18.97;24.06;99066.13;8381368;28;20521;-74
2022/04/17 09:08:15;;;;;;;2.87;2.07;;;;;;;19.39;24.47;99059.13;8383010;28;20246;-74
2022/04/17 09:12:19;;;;;;;3.83;2.10;;;;;;;19.75;23.75;99063.00;8382872;28;20550;-74
2022/04/17 09:16:28;;;;;;;3.87;2.50;;;;;;;19.87;23.50;99059.56;8382662;28;20210;-75
2022/04/17 09:20:31;;;;;;;3.63;2.13;;;;;;;19.98;24.02;99054.44;8382697;28;20203;-74
2022/04/17 09:24:36;;;;;;;4.00;2.50;;;;;;;20.36;23.44;99053.69;8381959;28;20227;-74
2022/04/17 09:28:39;;;;;;;3.90;2.27;;;;;;;19.63;21.51;99052.31;8382518;28;20214;-75
2022/04/17 09:32:43;;;;;;;4.50;2.33;;;;;;;19.65;20.83;99045.16;8382801;28;20200;-74
2022/04/17 09:36:46;;;;;;;3.90;2.10;;;;;;;19.93;22.34;99043.38;8382313;28;20203;-75
2022/04/17 09:40:50;;;;;;;4.10;2.37;;;;;;;20.61;21.55;99031.00;8382405;28;20243;-73
2022/04/17 09:44:55;;;;;;;4.47;2.20;;;;;;;20.53;20.60;99038.56;8382132;28;20230;-74
2022/04/17 09:49:00;;;;;;;5.73;3.00;;;;;;;18.92;21.90;99037.50;8382601;28;20550;-74
2022/04/17 09:53:06;;;;;;;3.23;2.30;;;;;;;20.24;21.47;99030.84;8381691;28;20204;-74
2022/04/17 09:57:11;;;;;;;4.07;2.27;;;;;;;19.40;21.77;99018.78;8381875;28;20205;-78
2022/04/17 10:01:18;;;;;;;3.73;1.97;;;;;;;19.92;22.07;99007.53;8382467;28;20370;-73
2022/04/17 10:05:23;;;;;;;6.50;2.33;;;;;;;18.98;22.81;99003.00;8381706;28;20215;-73
2022/04/17 10:09:26;;;;;;;5.53;2.23;;;;;;;20.29;22.76;99003.25;8381606;28;20206;-73
2022/04/17 10:13:32;;;;;;;4.57;2.83;;;;;;;19.41;23.10;99000.28;8381773;28;20201;-73
2022/04/17 10:17:35;;;;;;;2.67;2.23;;;;;;;17.53;24.20;99005.41;8381774;28;20237;-73
2022/04/17 10:21:40;;;;;;;3.37;2.20;;;;;;;18.46;24.32;98988.66;8381931;28;20200;-74
2022/04/17 10:25:46;;;;;;;5.00;2.50;;;;;;;17.34;25.20;98985.53;8387913;28;20232;-74
2022/04/17 10:29:53;;;;;;;5.97;2.73;;;;;;;18.07;24.21;98981.41;8388177;28;20207;-75
2022/04/17 10:34:28;;;;;;;4.77;2.80;;;;;;;18.60;24.44;98966.00;8388021;28;20386;-73
2022/04/17 10:38:43;;;;;;;3.87;2.30;;;;;;;17.94;26.03;98961.16;8387958;28;20200;-76
2022/04/17 10:42:56;;;;;;;7.00;2.00;;;;;;;19.54;30.34;98945.19;8387892;28;20415;-74
2022/04/17 10:47:05;;;;;;;3.97;2.30;;;;;;;19.50;23.27;98941.91;8382052;28;20231;-74
2022/04/17 10:51:13;;;;;;;4.03;2.47;;;;;;;19.55;23.73;98931.09;8354181;28;20185;-74
2022/04/17 10:55:18;;;;;;;4.70;2.77;;;;;;;20.42;24.15;98932.25;8354644;28;20367;-76
2022/04/17 10:59:22;;;;;;;4.77;2.30;;;;;;;19.29;22.48;98928.41;8353642;28;20201;-75
2022/04/17 11:03:27;;;;;;;4.87;2.63;;;;;;;18.72;22.59;98921.47;8353409;28;20518;-74
2022/04/17 11:07:31;;;;;;;4.67;2.30;;;;;;;18.63;24.78;98915.97;8353829;28;20242;-74
2022/04/17 11:11:39;;;;;;;3.40;2.10;;;;;;;19.60;23.97;98910.63;8353811;28;20206;-74
2022/04/17 11:15:43;;;;;;;4.03;2.30;;;;;;;20.63;22.23;98900.16;8355983;28;20197;-74
2022/04/17 11:19:47;;;;;;;5.07;2.27;;;;;;;20.00;21.12;98897.44;8386618;28;20203;-74
2022/04/17 11:24:01;;;;;;;3.43;2.00;;;;;;;19.52;21.81;98894.53;8386228;28;20366;-74
2022/04/17 11:28:05;;;;;;;5.57;1.90;;;;;;;20.39;22.93;98890.41;8386054;28;20220;-75
2022/04/17 11:32:51;;;;;;;4.40;1.93;;;;;;;20.75;23.38;98890.53;8385946;28;20222;-75
2022/04/17 11:36:54;;;;;;;4.97;2.10;;;;;;;20.47;22.78;98881.97;8381363;28;20211;-75
2022/04/17 11:40:58;;;;;;;3.53;2.40;;;;;;;19.62;20.43;98865.84;8385885;28;20243;-75
2022/04/17 11:45:04;;;;;;;5.27;2.87;;;;;;;18.13;21.84;98865.72;8385908;28;20494;-75
2022/04/17 11:49:07;;;;;;;7.33;2.60;;;;;;;18.85;21.66;98868.25;8385730;28;20393;-75
2022/04/17 11:53:12;;;;;;;4.53;2.10;;;;;;;20.36;21.86;98855.56;8385250;28;20205;-76
2022/04/17 11:57:16;;;;;;;8.17;2.67;;;;;;;20.97;20.95;98845.09;8384178;28;20391;-75
2022/04/17 12:01:26;;;;;;;8.00;1.83;;;;;;;21.70;20.88;98843.19;8385282;28;20200;-75
2022/04/17 12:05:30;;;;;;;4.83;2.03;;;;;;;20.82;22.31;98847.03;8385304;28;20193;-75
2022/04/17 12:09:33;;;;;;;8.90;2.43;;;;;;;21.77;23.12;98833.88;8385317;28;20268;-76
2022/04/17 12:13:36;;;;;;;6.97;3.10;;;;;;;21.37;22.17;98826.31;8384968;28;20412;-75
2022/04/17 12:17:41;;;;;;;4.80;2.83;;;;;;;20.69;19.89;98823.41;8384880;28;20273;-75
2022/04/17 12:21:44;;;;;;;4.27;2.53;;;;;;;19.97;21.49;98826.69;8384518;28;20200;-76
2022/04/17 12:25:47;;;;;;;7.97;2.70;;;;;;;20.71;21.93;98813.59;8384103;28;20233;-75
2022/04/17 12:29:53;;;;;;;7.47;2.60;;;;;;;20.52;22.53;98806.16;8384520;28;20186;-76
2022/04/17 12:34:08;;;;;;;6.00;2.50;;;;;;;21.22;22.02;98799.34;8384230;28;20235;-76
2022/04/17 12:38:11;;;;;;;6.07;3.87;;;;;;;20.37;19.99;98805.50;8383839;28;20217;-76
2022/04/17 12:42:17;;;;;;;4.80;2.90;;;;;;;18.86;19.70;98796.47;8383690;28;20229;-76
2022/04/17 12:46:25;;;;;;;3.93;2.40;;;;;;;19.10;20.01;98788.78;8383065;28;20224;-75
2022/04/17 12:50:30;;;;;;;7.67;3.83;;;;;;;18.58;20.08;98779.00;8383329;28;20201;-75
2022/04/17 12:54:34;;;;;;;3.87;2.80;;;;;;;19.14;20.98;98767.44;8383535;28;20204;-76
2022/04/17 12:58:50;;;;;;;3.27;2.30;;;;;;;19.80;21.54;98774.44;8383419;28;20203;-76
2022/04/17 13:03:08;;;;;;;4.57;2.27;;;;;;;20.02;22.19;98769.38;8383454;28;20506;-76
2022/04/17 13:07:15;;;;;;;5.00;2.13;;;;;;;19.79;21.12;98757.00;8382988;28;20220;-76
2022/04/17 13:11:21;;;;;;;5.20;2.10;;;;;;;20.54;22.31;98751.63;8383031;28;20219;-75
2022/04/17 13:15:30;;;;;;;9.87;2.30;;;;;;;20.51;21.66;98741.34;8383082;28;20206;-79
2022/04/17 13:19:33;;;;;;;6.80;2.77;;;;;;;20.09;22.10;98746.94;8382630;28;20203;-77
2022/04/17 13:23:38;;;;;;;7.93;2.07;;;;;;;20.76;22.07;98739.59;8382805;28;20226;-77
2022/04/17 13:27:41;;;;;;;7.53;2.07;;;;;;;20.95;20.55;98731.97;8383146;28;20226;-77
2022/04/17 13:31:44;;;;;;;8.47;1.87;;;;;;;21.53;21.79;98724.09;8382562;28;20208;-75
2022/04/17 13:35:47;;;;;;;8.90;1.97;;;;;;;21.55;20.83;98723.97;8383014;28;20200;-75
2022/04/17 13:39:51;;;;;;;4.17;1.93;;;;;;;21.72;21.02;98715.59;8382597;28;20260;-75
2022/04/17 13:43:55;;;;;;;13.93;2.10;;;;;;;21.66;19.89;98708.16;8382307;28;20270;-76
2022/04/17 13:47:58;;;;;;;6.67;1.73;;;;;;;21.48;21.35;98694.66;8382665;28;20411;-75
2022/04/17 13:52:01;;;;;;;5.77;1.80;;;;;;;21.37;20.96;98690.16;8382050;28;20205;-75
2022/04/17 13:56:06;;;;;;;3.57;1.33;;;;;;;21.59;21.29;98692.00;8383240;28;20213;-75
2022/04/17 14:00:16;;;;;;;3.63;1.57;;;;;;;20.98;22.17;98673.84;8389281;28;20205;-74
2022/04/17 14:04:19;;;;;;;4.27;1.60;;;;;;;20.74;21.13;98660.72;8389035;28;20497;-75
2022/04/17 14:08:22;;;;;;;5.93;1.50;;;;;;;20.83;21.70;98659.22;8388938;28;20234;-75
2022/04/17 14:12:28;;;;;;;3.50;1.70;;;;;;;20.89;21.29;98654.31;8388336;28;20215;-75
2022/04/17 14:16:31;;;;;;;3.43;1.60;;;;;;;21.01;22.18;98649.91;8388573;28;20213;-75
2022/04/17 14:20:35;;;;;;;3.40;1.60;;;;;;;21.28;20.91;98649.59;8388310;28;20206;-76
2022/04/17 14:24:37;;;;;;;3.17;1.23;;;;;;;20.96;21.47;98638.03;8388207;28;20219;-76
2022/04/17 14:28:42;;;;;;;3.60;1.27;;;;;;;20.99;20.08;98632.53;8387959;28;20230;-76
2022/04/17 14:32:45;;;;;;;2.50;1.97;;;;;;;20.62;18.42;98645.84;8388346;28;20213;-75
2022/04/17 14:36:50;;;;;;;6.00;1.50;;;;;;;20.53;18.83;98633.38;8388101;28;20211;-76
2022/04/17 14:40:53;;;;;;;2.90;1.70;;;;;;;20.46;18.94;98623.28;8387569;28;20236;-75
2022/04/17 14:44:58;;;;;;;2.30;1.30;;;;;;;20.22;18.76;98617.22;8387642;28;20201;-75
2022/04/17 14:49:01;;;;;;;2.03;1.33;;;;;;;20.31;19.72;98616.53;8387341;28;20223;-75
2022/04/17 14:53:04;;;;;;;3.23;1.30;;;;;;;20.34;17.64;98612.84;8387475;28;20494;-75
2022/04/17 14:57:08;;;;;;;3.30;1.30;;;;;;;20.42;17.11;98603.44;8387186;28;20205;-75
2022/04/17 15:01:12;;;;;;;4.20;1.43;;;;;;;20.31;18.47;98595.50;8387099;28;20389;-75
2022/04/17 15:05:15;;;;;;;2.53;1.30;;;;;;;20.08;19.23;98595.41;8386924;28;20220;-74
2022/04/17 15:09:18;;;;;;;2.80;2.17;;;;;;;20.00;18.12;98589.88;8385759;28;20217;-75
2022/04/17 15:13:22;;;;;;;2.00;1.20;;;;;;;19.18;18.34;98592.19;8385290;28;20196;-75
2022/04/17 15:17:27;;;;;;;3.63;1.80;;;;;;;19.59;18.00;98579.69;8383447;28;20310;-76
2022/04/17 15:21:30;;;;;;;2.00;1.40;;;;;;;19.87;17.94;98570.69;8385990;28;20192;-74
2022/04/17 15:25:35;;;;;;;1.83;1.40;;;;;;;20.19;19.47;98568.31;8386536;28;20215;-75
2022/04/17 15:29:39;;;;;;;7.23;4.60;;;;;;;19.43;16.96;98566.84;8385969;28;20239;-77
2022/04/17 15:33:45;;;;;;;4.33;2.97;;;;;;;19.26;17.92;98550.47;8383241;28;20205;-77
2022/04/17 15:37:49;;;;;;;3.13;2.23;;;;;;;19.68;17.78;98543.09;8385371;28;20188;-76
2022/04/17 15:41:52;;;;;;;1.93;1.50;;;;;;;19.50;18.16;98549.69;8384981;28;20246;-77
2022/04/17 15:50:18;;;;;;;2.67;1.60;;;;;;;19.33;18.52;98537.75;8383851;28;20247;-77
2022/04/17 15:54:21;;;;;;;2.33;1.53;;;;;;;19.49;19.19;98537.50;8384590;28;20386;-76
2022/04/17 15:58:24;;;;;;;1.80;1.33;;;;;;;19.31;18.50;98535.25;8382665;28;20204;-76
2022/04/17 16:02:27;;;;;;;4.50;1.60;;;;;;;18.46;19.85;98539.38;8384638;28;20198;-77
2022/04/17 16:06:31;;;;;;;2.10;1.43;;;;;;;18.42;19.98;98536.13;8384716;28;20192;-76
2022/04/17 16:10:34;;;;;;;3.30;1.50;;;;;;;18.09;19.64;98536.59;8384355;28;20302;-76
2022/04/17 16:14:37;;;;;;;3.00;1.50;;;;;;;18.03;20.03;98535.22;8383799;28;20196;-76
2022/04/17 16:18:40;;;;;;;7.73;1.67;;;;;;;18.05;20.44;98530.72;8383912;28;20200;-77
2022/04/17 16:22:44;;;;;;;4.27;1.57;;;;;;;17.57;20.00;98522.44;8380089;28;20203;-76
2022/04/17 16:26:47;;;;;;;4.33;2.10;;;;;;;17.50;20.02;98522.00;8383628;28;20192;-76
2022/04/17 16:30:50;;;;;;;3.53;1.50;;;;;;;17.45;20.94;98523.25;8384129;28;20478;-76
2022/04/17 16:34:53;;;;;;;4.80;1.50;;;;;;;17.54;21.49;98520.03;8382755;28;20199;-76
2022/04/17 16:38:58;;;;;;;1.83;1.30;;;;;;;17.31;20.65;98522.34;8382513;28;20202;-76
2022/04/17 16:43:01;;;;;;;3.60;2.20;;;;;;;17.34;20.65;98519.53;8382594;28;20192;-76
2022/04/17 16:47:04;;;;;;;2.90;2.10;;;;;;;16.79;20.91;98521.16;8380641;28;20199;-76
2022/04/17 16:51:07;;;;;;;2.93;1.97;;;;;;;17.01;21.35;98501.53;8382469;28;20191;-76
2022/04/17 16:55:12;;;;;;;3.07;1.73;;;;;;;16.63;21.00;98499.47;8381715;28;20474;-76
2022/04/17 16:59:16;;;;;;;3.07;1.83;;;;;;;17.07;21.63;98495.09;8382147;28;20270;-76
2022/04/17 17:03:18;;;;;;;3.70;1.70;;;;;;;17.14;21.46;98491.16;8382549;28;20274;-73
2022/04/17 17:07:21;;;;;;;3.77;1.80;;;;;;;17.15;21.03;98491.06;8382470;28;20231;-76
2022/04/17 17:11:26;;;;;;;2.73;1.77;;;;;;;17.14;21.23;98501.63;8380095;28;20269;-77
2022/04/17 17:15:30;;;;;;;3.10;1.67;;;;;;;17.04;21.76;98495.28;8382407;28;20192;-75
2022/04/17 17:19:33;;;;;;;10.57;2.20;;;;;;;17.07;22.68;98495.09;8382441;28;20204;-76
2022/04/17 17:23:37;;;;;;;3.10;2.00;;;;;;;17.04;22.53;98490.91;8382782;28;20417;-76
2022/04/17 17:27:41;;;;;;;1.87;1.40;;;;;;;17.05;22.46;98486.50;8383043;28;20227;-76
2022/04/17 17:31:44;;;;;;;5.60;2.70;;;;;;;16.91;22.79;98487.38;8382165;28;20200;-76
2022/04/17 17:35:48;;;;;;;2.27;1.90;;;;;;;17.03;23.38;98491.00;8382507;28;20200;-76
2022/04/17 17:39:51;;;;;;;2.47;1.80;;;;;;;16.73;23.32;98482.28;8382663;28;20416;-76
2022/04/17 17:43:56;;;;;;;2.67;2.03;;;;;;;16.74;23.42;98477.91;8382327;28;20216;-76
2022/04/17 17:48:02;;;;;;;3.97;1.77;;;;;;;16.66;23.04;98477.50;8382500;28;20231;-75
2022/04/17 17:52:06;;;;;;;2.27;1.83;;;;;;;16.63;23.46;98485.56;8382089;28;20200;-76
2022/04/17 17:56:11;;;;;;;4.03;1.80;;;;;;;16.44;23.27;98468.38;8381966;28;20196;-76
2022/04/17 18:00:17;;;;;;;2.83;1.70;;;;;;;16.52;23.96;98473.97;8382278;28;20213;-74
2022/04/17 18:04:20;;;;;;;3.80;2.60;;;;;;;16.48;24.83;98472.47;8381349;28;20198;-79
2022/04/17 18:17:06;;;;;;;4.30;2.50;;;;;;;16.32;25.78;98483.03;8381895;28;20207;-74
2022/04/17 18:21:10;;;;;;;3.80;2.90;;;;;;;16.20;26.25;98481.13;8379798;28;20211;-76
2022/04/17 18:25:13;;;;;;;6.37;2.97;;;;;;;16.11;25.87;98485.13;8381719;28;20231;-76
2022/04/17 18:29:16;;;;;;;11.80;10.53;;;;;;;16.00;25.44;98487.53;8381866;28;20236;-76
2022/04/17 18:33:23;;;;;;;16.87;15.23;;;;;;;15.91;25.06;98496.72;8381731;28;20310;-76
2022/04/17 18:37:26;;;;;;;24.77;22.27;;;;;;;15.82;25.48;98495.50;8381908;28;20291;-76
2022/04/17 18:41:29;;;;;;;21.93;19.83;;;;;;;15.82;25.35;98495.50;8381083;28;20224;-76
2022/04/17 18:45:32;;;;;;;82.67;60.63;;;;;;;15.66;23.86;98499.03;8386349;28;20517;-73
2022/04/17 18:49:37;;;;;;;18.77;12.47;;;;;;;15.63;23.80;98500.03;8387031;28;20227;-76
2022/04/17 18:53:40;;;;;;;10.90;8.20;;;;;;;15.68;23.57;98502.41;8387167;28;20262;-75
2022/04/17 18:57:43;;;;;;;6.33;4.33;;;;;;;15.52;22.76;98502.44;8386560;28;20239;-75
2022/04/17 19:01:46;;;;;;;9.53;6.70;;;;;;;15.53;22.96;98496.28;8387073;28;20200;-76
2022/04/17 19:05:53;;;;;;;26.90;19.63;;;;;;;15.38;22.84;98490.13;8386425;28;20204;-75
2022/04/17 19:09:56;;;;;;;12.40;11.20;;;;;;;15.27;22.29;98492.50;8386260;28;20231;-75
2022/04/17 19:14:01;;;;;;;4.27;3.87;;;;;;;15.18;22.11;98494.69;8386141;28;20195;-75
2022/04/17 19:18:04;;;;;;;5.60;4.57;;;;;;;15.07;22.00;98499.66;8386821;28;20267;-75
2022/04/17 19:22:09;;;;;;;3.73;2.70;;;;;;;15.09;22.99;98494.34;8386072;28;20199;-75
2022/04/17 19:26:13;;;;;;;3.13;2.10;;;;;;;15.03;23.70;98495.53;8385750;28;20257;-76
2022/04/17 19:30:16;;;;;;;3.63;1.87;;;;;;;15.11;24.19;98495.13;8385930;28;20227;-75
2022/04/17 19:38:41;;;;;;;2.23;1.70;;;;;;;14.95;25.32;98492.50;8386208;28;20211;-75
2022/04/17 19:42:44;;;;;;;11.97;2.00;;;;;;;14.84;25.14;98496.50;8385794;28;20556;-76